sensor_id;sensor_type;location;lat;lon;timestamp;temperature;humidity
3356;DHT22;1691;52.486;13.374;2023-11-21T00:00:16;9.20;98.70
3356;DHT22;1691;52.486;13.374;2023-11-21T00:02:44;9.10;98.70
3356;DHT22;1691;52.486;13.374;2023-11-21T00:05:15;8.90;98.70
3356;DHT22;1691;52.486;13.374;2023-11-21T00:07:43;8.80;98.70
3356;DHT22;1691;52.486;13.374;2023-11-21T00:10:12;8.70;98.70
3356;DHT22;1691;52.486;13.374;2023-11-21T00:12:41;8.60;98.70
3356;DHT22;1691;52.486;13.374;2023-11-21T00:15:10;8.60;98.70
3356;DHT22;1691;52.486;13.374;2023-11-21T00:17:40;8.50;98.70
3356;DHT22;1691;52.486;13.374;2023-11-21T00:20:10;8.40;98.70
3356;DHT22;1691;52.486;13.374;2023-11-21T00:22:40;8.30;98.70
3356;DHT22;1691;52.486;13.374;2023-11-21T00:25:07;8.20;98.70
3356;DHT22;1691;52.486;13.374;2023-11-21T00:27:36;8.20;98.70
3356;DHT22;1691;52.486;13.374;2023-11-21T00:30:03;8.20;98.70
3356;DHT22;1691;52.486;13.374;2023-11-21T00:32:32;8.20;98.70
3356;DHT22;1691;52.486;13.374;2023-11-21T00:34:59;8.10;98.70
3356;DHT22;1691;52.486;13.374;2023-11-21T00:37:26;8.10;98.70
3356;DHT22;1691;52.486;13.374;2023-11-21T00:39:53;8.10;98.70
3356;DHT22;1691;52.486;13.374;2023-11-21T00:42:20;8.00;98.70
3356;DHT22;1691;52.486;13.374;2023-11-21T00:44:48;8.00;98.70
3356;DHT22;1691;52.486;13.374;2023-11-21T00:47:15;8.00;98.70
3356;DHT22;1691;52.486;13.374;2023-11-21T00:49:44;8.00;98.70
3356;DHT22;1691;52.486;13.374;2023-11-21T00:52:11;8.00;98.70
3356;DHT22;1691;52.486;13.374;2023-11-21T00:54:38;7.90;98.70
3356;DHT22;1691;52.486;13.374;2023-11-21T00:57:05;7.80;98.70
3356;DHT22;1691;52.486;13.374;2023-11-21T00:59:32;7.80;98.70
3356;DHT22;1691;52.486;13.374;2023-11-21T01:01:59;7.70;98.70
3356;DHT22;1691;52.486;13.374;2023-11-21T01:04:27;7.70;98.70
3356;DHT22;1691;52.486;13.374;2023-11-21T01:06:55;7.60;98.70
3356;DHT22;1691;52.486;13.374;2023-11-21T01:09:22;7.60;98.70
3356;DHT22;1691;52.486;13.374;2023-11-21T01:11:48;7.60;98.70
3356;DHT22;1691;52.486;13.374;2023-11-21T01:14:15;7.60;98.70
3356;DHT22;1691;52.486;13.374;2023-11-21T01:16:44;7.60;98.70
3356;DHT22;1691;52.486;13.374;2023-11-21T01:19:11;7.60;98.70
3356;DHT22;1691;52.486;13.374;2023-11-21T01:21:38;7.60;98.70
3356;DHT22;1691;52.486;13.374;2023-11-21T01:24:05;7.60;98.70
3356;DHT22;1691;52.486;13.374;2023-11-21T01:26:34;7.60;98.70
3356;DHT22;1691;52.486;13.374;2023-11-21T01:29:01;7.60;98.70
3356;DHT22;1691;52.486;13.374;2023-11-21T01:31:28;7.50;98.70
3356;DHT22;1691;52.486;13.374;2023-11-21T01:33:56;7.40;98.70
3356;DHT22;1691;52.486;13.374;2023-11-21T01:36:29;7.40;98.70
3356;DHT22;1691;52.486;13.374;2023-11-21T01:38:58;7.40;98.70
3356;DHT22;1691;52.486;13.374;2023-11-21T01:41:29;7.30;98.70
3356;DHT22;1691;52.486;13.374;2023-11-21T01:43:57;7.20;98.70
3356;DHT22;1691;52.486;13.374;2023-11-21T01:46:24;7.20;98.70
3356;DHT22;1691;52.486;13.374;2023-11-21T01:48:52;7.10;98.70
3356;DHT22;1691;52.486;13.374;2023-11-21T01:51:20;7.10;98.70
3356;DHT22;1691;52.486;13.374;2023-11-21T01:53:47;7.10;98.70
3356;DHT22;1691;52.486;13.374;2023-11-21T01:56:14;7.10;98.70
3356;DHT22;1691;52.486;13.374;2023-11-21T01:58:42;7.10;98.70
3356;DHT22;1691;52.486;13.374;2023-11-21T02:01:10;7.10;98.70
3356;DHT22;1691;52.486;13.374;2023-11-21T02:03:37;7.10;98.70
3356;DHT22;1691;52.486;13.374;2023-11-21T02:06:05;7.10;98.70
3356;DHT22;1691;52.486;13.374;2023-11-21T02:08:32;7.10;98.70
3356;DHT22;1691;52.486;13.374;2023-11-21T02:10:59;7.00;98.70
3356;DHT22;1691;52.486;13.374;2023-11-21T02:13:26;7.00;98.70
3356;DHT22;1691;52.486;13.374;2023-11-21T02:15:54;7.00;98.70
3356;DHT22;1691;52.486;13.374;2023-11-21T02:18:21;6.90;98.70
3356;DHT22;1691;52.486;13.374;2023-11-21T02:20:49;6.90;98.70
3356;DHT22;1691;52.486;13.374;2023-11-21T02:23:16;6.80;98.70
3356;DHT22;1691;52.486;13.374;2023-11-21T02:25:44;6.80;98.70
3356;DHT22;1691;52.486;13.374;2023-11-21T02:28:11;6.80;98.70
3356;DHT22;1691;52.486;13.374;2023-11-21T02:30:42;6.70;98.70
3356;DHT22;1691;52.486;13.374;2023-11-21T02:33:10;6.70;98.70
3356;DHT22;1691;52.486;13.374;2023-11-21T02:35:39;6.70;98.70
3356;DHT22;1691;52.486;13.374;2023-11-21T02:38:06;6.70;98.70
3356;DHT22;1691;52.486;13.374;2023-11-21T02:40:33;6.70;98.70
3356;DHT22;1691;52.486;13.374;2023-11-21T02:43:00;6.70;98.70
3356;DHT22;1691;52.486;13.374;2023-11-21T02:45:27;6.70;98.70
3356;DHT22;1691;52.486;13.374;2023-11-21T02:47:54;6.70;98.70
3356;DHT22;1691;52.486;13.374;2023-11-21T02:50:24;6.80;98.70
3356;DHT22;1691;52.486;13.374;2023-11-21T02:52:51;6.80;98.70
3356;DHT22;1691;52.486;13.374;2023-11-21T02:55:18;6.80;98.70
3356;DHT22;1691;52.486;13.374;2023-11-21T02:57:45;6.80;98.70
3356;DHT22;1691;52.486;13.374;2023-11-21T03:00:12;6.80;98.70
3356;DHT22;1691;52.486;13.374;2023-11-21T03:02:42;6.70;98.70
3356;DHT22;1691;52.486;13.374;2023-11-21T03:05:10;6.70;98.70
3356;DHT22;1691;52.486;13.374;2023-11-21T03:07:38;6.70;98.70
3356;DHT22;1691;52.486;13.374;2023-11-21T03:10:09;6.70;98.70
3356;DHT22;1691;52.486;13.374;2023-11-21T03:12:41;6.80;98.70
3356;DHT22;1691;52.486;13.374;2023-11-21T03:15:08;6.80;98.70
3356;DHT22;1691;52.486;13.374;2023-11-21T03:17:35;6.80;98.70
3356;DHT22;1691;52.486;13.374;2023-11-21T03:20:03;6.80;98.70
3356;DHT22;1691;52.486;13.374;2023-11-21T03:22:31;6.70;98.70
3356;DHT22;1691;52.486;13.374;2023-11-21T03:24:59;6.70;98.70
3356;DHT22;1691;52.486;13.374;2023-11-21T03:27:27;6.60;98.70
3356;DHT22;1691;52.486;13.374;2023-11-21T03:29:54;6.60;98.70
3356;DHT22;1691;52.486;13.374;2023-11-21T03:32:21;6.60;98.70
3356;DHT22;1691;52.486;13.374;2023-11-21T03:34:56;6.60;98.70
3356;DHT22;1691;52.486;13.374;2023-11-21T03:37:25;6.60;98.70
3356;DHT22;1691;52.486;13.374;2023-11-21T03:39:55;6.60;98.70
3356;DHT22;1691;52.486;13.374;2023-11-21T03:42:23;6.60;98.70
3356;DHT22;1691;52.486;13.374;2023-11-21T03:44:53;6.60;98.70
3356;DHT22;1691;52.486;13.374;2023-11-21T03:47:20;6.60;98.70
3356;DHT22;1691;52.486;13.374;2023-11-21T03:49:48;6.60;98.70
3356;DHT22;1691;52.486;13.374;2023-11-21T03:52:15;6.50;98.70
3356;DHT22;1691;52.486;13.374;2023-11-21T03:54:43;6.50;98.70
3356;DHT22;1691;52.486;13.374;2023-11-21T03:57:10;6.50;98.70
3356;DHT22;1691;52.486;13.374;2023-11-21T03:59:42;6.40;98.70
3356;DHT22;1691;52.486;13.374;2023-11-21T04:02:09;6.40;98.70
3356;DHT22;1691;52.486;13.374;2023-11-21T04:04:37;6.40;98.70
3356;DHT22;1691;52.486;13.374;2023-11-21T04:07:04;6.30;98.70
3356;DHT22;1691;52.486;13.374;2023-11-21T04:09:32;6.30;98.70
3356;DHT22;1691;52.486;13.374;2023-11-21T04:11:59;6.30;98.70
3356;DHT22;1691;52.486;13.374;2023-11-21T04:14:26;6.30;98.70
3356;DHT22;1691;52.486;13.374;2023-11-21T04:16:53;6.30;98.70
3356;DHT22;1691;52.486;13.374;2023-11-21T04:19:21;6.30;98.70
3356;DHT22;1691;52.486;13.374;2023-11-21T04:21:48;6.30;98.70
3356;DHT22;1691;52.486;13.374;2023-11-21T04:24:15;6.30;98.70
3356;DHT22;1691;52.486;13.374;2023-11-21T04:26:44;6.30;98.70
3356;DHT22;1691;52.486;13.374;2023-11-21T04:29:11;6.30;98.70
3356;DHT22;1691;52.486;13.374;2023-11-21T04:31:38;6.30;98.70
3356;DHT22;1691;52.486;13.374;2023-11-21T04:34:05;6.40;98.70
3356;DHT22;1691;52.486;13.374;2023-11-21T04:36:32;6.40;98.70
3356;DHT22;1691;52.486;13.374;2023-11-21T04:38:59;6.40;98.70
3356;DHT22;1691;52.486;13.374;2023-11-21T04:41:26;6.40;98.70
3356;DHT22;1691;52.486;13.374;2023-11-21T04:43:53;6.40;98.70
3356;DHT22;1691;52.486;13.374;2023-11-21T04:46:20;6.30;98.70
3356;DHT22;1691;52.486;13.374;2023-11-21T04:48:48;6.30;98.70
3356;DHT22;1691;52.486;13.374;2023-11-21T04:51:15;6.30;98.70
3356;DHT22;1691;52.486;13.374;2023-11-21T04:53:42;6.30;98.70
3356;DHT22;1691;52.486;13.374;2023-11-21T04:56:10;6.30;98.70
3356;DHT22;1691;52.486;13.374;2023-11-21T04:58:37;6.30;98.70
3356;DHT22;1691;52.486;13.374;2023-11-21T05:01:07;6.30;98.70
3356;DHT22;1691;52.486;13.374;2023-11-21T05:03:35;6.30;98.70
3356;DHT22;1691;52.486;13.374;2023-11-21T05:06:02;6.30;98.70
3356;DHT22;1691;52.486;13.374;2023-11-21T05:08:31;6.30;98.70
3356;DHT22;1691;52.486;13.374;2023-11-21T05:10:59;6.30;98.70
3356;DHT22;1691;52.486;13.374;2023-11-21T05:13:25;6.30;98.70
3356;DHT22;1691;52.486;13.374;2023-11-21T05:15:55;6.30;98.70
3356;DHT22;1691;52.486;13.374;2023-11-21T05:18:25;6.30;98.70
3356;DHT22;1691;52.486;13.374;2023-11-21T05:20:56;6.40;98.70
3356;DHT22;1691;52.486;13.374;2023-11-21T05:23:24;6.40;98.70
3356;DHT22;1691;52.486;13.374;2023-11-21T05:25:51;6.30;98.70
3356;DHT22;1691;52.486;13.374;2023-11-21T05:28:18;6.30;98.70
3356;DHT22;1691;52.486;13.374;2023-11-21T05:30:45;6.30;98.70
3356;DHT22;1691;52.486;13.374;2023-11-21T05:33:12;6.30;98.70
3356;DHT22;1691;52.486;13.374;2023-11-21T05:35:39;6.30;98.70
3356;DHT22;1691;52.486;13.374;2023-11-21T05:38:06;6.30;98.70
3356;DHT22;1691;52.486;13.374;2023-11-21T05:40:33;6.20;98.70
3356;DHT22;1691;52.486;13.374;2023-11-21T05:43:01;6.20;98.70
3356;DHT22;1691;52.486;13.374;2023-11-21T05:45:28;6.20;98.70
3356;DHT22;1691;52.486;13.374;2023-11-21T05:47:58;6.20;98.70
3356;DHT22;1691;52.486;13.374;2023-11-21T05:50:25;6.20;98.70
3356;DHT22;1691;52.486;13.374;2023-11-21T05:52:52;6.20;98.70
3356;DHT22;1691;52.486;13.374;2023-11-21T05:55:19;6.10;98.70
3356;DHT22;1691;52.486;13.374;2023-11-21T05:57:52;6.00;98.70
3356;DHT22;1691;52.486;13.374;2023-11-21T06:00:20;6.00;98.70
3356;DHT22;1691;52.486;13.374;2023-11-21T06:02:52;6.00;98.70
3356;DHT22;1691;52.486;13.374;2023-11-21T06:05:23;6.00;98.70
3356;DHT22;1691;52.486;13.374;2023-11-21T06:07:53;6.00;98.70
3356;DHT22;1691;52.486;13.374;2023-11-21T06:10:21;6.00;98.70
3356;DHT22;1691;52.486;13.374;2023-11-21T06:12:51;6.00;98.70
3356;DHT22;1691;52.486;13.374;2023-11-21T06:15:19;6.00;98.70
3356;DHT22;1691;52.486;13.374;2023-11-21T06:17:48;6.00;98.70
3356;DHT22;1691;52.486;13.374;2023-11-21T06:20:19;6.00;98.70
3356;DHT22;1691;52.486;13.374;2023-11-21T06:22:50;5.90;98.70
3356;DHT22;1691;52.486;13.374;2023-11-21T06:25:18;5.90;98.70
3356;DHT22;1691;52.486;13.374;2023-11-21T06:27:46;5.90;98.70
3356;DHT22;1691;52.486;13.374;2023-11-21T06:30:15;5.90;98.70
3356;DHT22;1691;52.486;13.374;2023-11-21T06:32:43;5.90;98.70
3356;DHT22;1691;52.486;13.374;2023-11-21T06:35:14;6.00;98.70
3356;DHT22;1691;52.486;13.374;2023-11-21T06:37:43;6.00;98.70
3356;DHT22;1691;52.486;13.374;2023-11-21T06:40:16;6.00;98.70
3356;DHT22;1691;52.486;13.374;2023-11-21T06:42:45;6.00;98.70
3356;DHT22;1691;52.486;13.374;2023-11-21T06:45:14;5.90;98.70
3356;DHT22;1691;52.486;13.374;2023-11-21T06:47:42;5.90;98.70
3356;DHT22;1691;52.486;13.374;2023-11-21T06:50:09;6.00;98.70
3356;DHT22;1691;52.486;13.374;2023-11-21T06:52:36;6.00;98.70
3356;DHT22;1691;52.486;13.374;2023-11-21T06:55:04;6.00;98.70
3356;DHT22;1691;52.486;13.374;2023-11-21T06:57:34;5.90;98.70
3356;DHT22;1691;52.486;13.374;2023-11-21T07:00:02;5.90;98.70
3356;DHT22;1691;52.486;13.374;2023-11-21T07:02:29;5.90;98.70
3356;DHT22;1691;52.486;13.374;2023-11-21T07:04:56;5.90;98.70
3356;DHT22;1691;52.486;13.374;2023-11-21T07:07:23;5.90;98.70
3356;DHT22;1691;52.486;13.374;2023-11-21T07:09:50;5.90;98.70
3356;DHT22;1691;52.486;13.374;2023-11-21T07:12:18;5.90;98.70
3356;DHT22;1691;52.486;13.374;2023-11-21T07:14:45;5.90;98.70
3356;DHT22;1691;52.486;13.374;2023-11-21T07:17:12;6.00;98.70
3356;DHT22;1691;52.486;13.374;2023-11-21T07:19:39;5.90;98.70
3356;DHT22;1691;52.486;13.374;2023-11-21T07:22:08;5.90;98.70
3356;DHT22;1691;52.486;13.374;2023-11-21T07:24:36;5.90;98.70
3356;DHT22;1691;52.486;13.374;2023-11-21T07:27:03;5.90;98.70
3356;DHT22;1691;52.486;13.374;2023-11-21T07:29:30;5.90;98.70
3356;DHT22;1691;52.486;13.374;2023-11-21T07:31:58;5.90;98.70
3356;DHT22;1691;52.486;13.374;2023-11-21T07:34:25;5.80;98.70
3356;DHT22;1691;52.486;13.374;2023-11-21T07:36:52;5.80;98.70
3356;DHT22;1691;52.486;13.374;2023-11-21T07:39:19;5.80;98.70
3356;DHT22;1691;52.486;13.374;2023-11-21T07:41:46;5.80;98.70
3356;DHT22;1691;52.486;13.374;2023-11-21T07:44:19;5.80;98.70
3356;DHT22;1691;52.486;13.374;2023-11-21T07:46:47;5.80;98.70
3356;DHT22;1691;52.486;13.374;2023-11-21T07:49:16;5.80;98.70
3356;DHT22;1691;52.486;13.374;2023-11-21T07:51:47;5.80;98.70
3356;DHT22;1691;52.486;13.374;2023-11-21T07:54:14;5.90;98.70
3356;DHT22;1691;52.486;13.374;2023-11-21T07:56:42;5.90;98.70
3356;DHT22;1691;52.486;13.374;2023-11-21T07:59:09;5.90;98.70
3356;DHT22;1691;52.486;13.374;2023-11-21T08:01:37;6.00;98.70
3356;DHT22;1691;52.486;13.374;2023-11-21T08:04:04;6.00;98.70
3356;DHT22;1691;52.486;13.374;2023-11-21T08:06:33;6.00;98.70
3356;DHT22;1691;52.486;13.374;2023-11-21T08:09:00;6.10;98.70
3356;DHT22;1691;52.486;13.374;2023-11-21T08:11:27;6.00;98.70
3356;DHT22;1691;52.486;13.374;2023-11-21T08:13:56;6.00;98.70
3356;DHT22;1691;52.486;13.374;2023-11-21T08:16:24;6.00;98.70
3356;DHT22;1691;52.486;13.374;2023-11-21T08:18:51;6.00;98.70
3356;DHT22;1691;52.486;13.374;2023-11-21T08:21:18;6.00;98.70
3356;DHT22;1691;52.486;13.374;2023-11-21T08:23:46;5.90;98.70
3356;DHT22;1691;52.486;13.374;2023-11-21T08:26:16;5.90;98.70
3356;DHT22;1691;52.486;13.374;2023-11-21T08:28:45;5.80;98.70
3356;DHT22;1691;52.486;13.374;2023-11-21T08:31:12;5.80;98.70
3356;DHT22;1691;52.486;13.374;2023-11-21T08:33:41;5.80;98.70
3356;DHT22;1691;52.486;13.374;2023-11-21T08:36:09;5.80;98.70
3356;DHT22;1691;52.486;13.374;2023-11-21T08:38:38;5.80;98.70
3356;DHT22;1691;52.486;13.374;2023-11-21T08:41:06;5.80;98.70
3356;DHT22;1691;52.486;13.374;2023-11-21T08:43:35;5.80;98.70
3356;DHT22;1691;52.486;13.374;2023-11-21T08:46:06;5.80;98.70
3356;DHT22;1691;52.486;13.374;2023-11-21T08:48:36;5.80;98.70
3356;DHT22;1691;52.486;13.374;2023-11-21T08:51:04;5.80;98.70
3356;DHT22;1691;52.486;13.374;2023-11-21T08:53:31;5.80;98.70
3356;DHT22;1691;52.486;13.374;2023-11-21T08:55:59;5.80;98.70
3356;DHT22;1691;52.486;13.374;2023-11-21T08:58:27;5.90;98.70
3356;DHT22;1691;52.486;13.374;2023-11-21T09:00:54;5.90;98.70
3356;DHT22;1691;52.486;13.374;2023-11-21T09:03:21;6.00;98.70
3356;DHT22;1691;52.486;13.374;2023-11-21T09:05:48;6.00;98.70
3356;DHT22;1691;52.486;13.374;2023-11-21T09:08:15;6.00;98.70
3356;DHT22;1691;52.486;13.374;2023-11-21T09:10:43;5.90;98.70
3356;DHT22;1691;52.486;13.374;2023-11-21T09:13:13;5.90;98.70
3356;DHT22;1691;52.486;13.374;2023-11-21T09:15:43;5.90;98.70
3356;DHT22;1691;52.486;13.374;2023-11-21T09:18:15;5.90;98.70
3356;DHT22;1691;52.486;13.374;2023-11-21T09:20:42;5.90;98.70
3356;DHT22;1691;52.486;13.374;2023-11-21T09:23:10;5.90;98.70
3356;DHT22;1691;52.486;13.374;2023-11-21T09:25:38;6.00;98.70
3356;DHT22;1691;52.486;13.374;2023-11-21T09:28:06;6.00;98.70
3356;DHT22;1691;52.486;13.374;2023-11-21T09:30:35;6.00;98.70
3356;DHT22;1691;52.486;13.374;2023-11-21T09:33:03;6.00;98.70
3356;DHT22;1691;52.486;13.374;2023-11-21T09:35:32;6.00;98.70
3356;DHT22;1691;52.486;13.374;2023-11-21T09:37:59;6.00;98.70
3356;DHT22;1691;52.486;13.374;2023-11-21T09:40:28;6.00;98.70
3356;DHT22;1691;52.486;13.374;2023-11-21T09:42:58;6.00;98.70
3356;DHT22;1691;52.486;13.374;2023-11-21T09:45:34;6.10;98.70
3356;DHT22;1691;52.486;13.374;2023-11-21T09:48:02;6.10;98.70
3356;DHT22;1691;52.486;13.374;2023-11-21T09:50:29;6.10;98.70
3356;DHT22;1691;52.486;13.374;2023-11-21T09:55:37;6.20;98.70
3356;DHT22;1691;52.486;13.374;2023-11-21T09:58:08;6.10;98.70
3356;DHT22;1691;52.486;13.374;2023-11-21T10:00:46;6.00;98.70
3356;DHT22;1691;52.486;13.374;2023-11-21T10:03:14;5.90;98.70
3356;DHT22;1691;52.486;13.374;2023-11-21T10:05:43;5.80;98.70
3356;DHT22;1691;52.486;13.374;2023-11-21T10:08:13;5.70;98.70
3356;DHT22;1691;52.486;13.374;2023-11-21T10:10:45;5.70;98.70
3356;DHT22;1691;52.486;13.374;2023-11-21T10:13:15;5.70;98.70
3356;DHT22;1691;52.486;13.374;2023-11-21T10:15:49;5.70;98.70
3356;DHT22;1691;52.486;13.374;2023-11-21T10:18:17;5.70;98.70
3356;DHT22;1691;52.486;13.374;2023-11-21T10:20:45;5.70;98.70
3356;DHT22;1691;52.486;13.374;2023-11-21T10:23:21;5.70;98.70
3356;DHT22;1691;52.486;13.374;2023-11-21T10:25:51;5.70;98.70
3356;DHT22;1691;52.486;13.374;2023-11-21T10:28:19;5.60;98.70
3356;DHT22;1691;52.486;13.374;2023-11-21T10:30:48;5.60;98.70
3356;DHT22;1691;52.486;13.374;2023-11-21T10:33:15;5.60;98.70
3356;DHT22;1691;52.486;13.374;2023-11-21T10:35:47;5.60;98.70
3356;DHT22;1691;52.486;13.374;2023-11-21T10:38:18;5.60;98.70
3356;DHT22;1691;52.486;13.374;2023-11-21T10:40:46;5.60;98.70
3356;DHT22;1691;52.486;13.374;2023-11-21T10:43:14;5.60;98.70
3356;DHT22;1691;52.486;13.374;2023-11-21T10:45:43;5.50;98.70
3356;DHT22;1691;52.486;13.374;2023-11-21T10:48:12;5.50;98.70
3356;DHT22;1691;52.486;13.374;2023-11-21T10:50:45;5.50;98.70
3356;DHT22;1691;52.486;13.374;2023-11-21T10:53:13;5.50;98.70
3356;DHT22;1691;52.486;13.374;2023-11-21T10:55:41;5.50;98.70
3356;DHT22;1691;52.486;13.374;2023-11-21T10:58:13;5.40;98.70
3356;DHT22;1691;52.486;13.374;2023-11-21T11:00:41;5.40;98.70
3356;DHT22;1691;52.486;13.374;2023-11-21T11:03:10;5.40;98.70
3356;DHT22;1691;52.486;13.374;2023-11-21T11:05:44;5.40;98.70
3356;DHT22;1691;52.486;13.374;2023-11-21T11:08:29;5.40;98.70
3356;DHT22;1691;52.486;13.374;2023-11-21T11:10:56;5.30;98.70
3356;DHT22;1691;52.486;13.374;2023-11-21T11:13:25;5.40;98.70
3356;DHT22;1691;52.486;13.374;2023-11-21T11:15:58;5.40;98.70
3356;DHT22;1691;52.486;13.374;2023-11-21T11:18:30;5.40;98.70
3356;DHT22;1691;52.486;13.374;2023-11-21T11:21:20;5.30;98.70
3356;DHT22;1691;52.486;13.374;2023-11-21T11:26:46;5.30;98.70
3356;DHT22;1691;52.486;13.374;2023-11-21T11:32:33;5.30;98.70
3356;DHT22;1691;52.486;13.374;2023-11-21T11:38:01;5.30;98.70
3356;DHT22;1691;52.486;13.374;2023-11-21T11:40:40;5.30;98.70
3356;DHT22;1691;52.486;13.374;2023-11-21T11:43:08;5.40;98.70
3356;DHT22;1691;52.486;13.374;2023-11-21T11:45:36;5.40;98.70
3356;DHT22;1691;52.486;13.374;2023-11-21T11:48:10;5.40;98.70
3356;DHT22;1691;52.486;13.374;2023-11-21T11:51:13;5.40;98.70
3356;DHT22;1691;52.486;13.374;2023-11-21T11:53:42;5.40;98.70
3356;DHT22;1691;52.486;13.374;2023-11-21T11:56:31;5.40;98.70
3356;DHT22;1691;52.486;13.374;2023-11-21T11:59:03;5.40;98.70
3356;DHT22;1691;52.486;13.374;2023-11-21T12:01:32;5.40;98.70
3356;DHT22;1691;52.486;13.374;2023-11-21T12:06:46;5.40;98.70
3356;DHT22;1691;52.486;13.374;2023-11-21T12:09:19;5.30;98.70
3356;DHT22;1691;52.486;13.374;2023-11-21T12:11:50;5.30;98.70
3356;DHT22;1691;52.486;13.374;2023-11-21T12:14:18;5.30;98.70
3356;DHT22;1691;52.486;13.374;2023-11-21T12:16:45;5.40;98.70
3356;DHT22;1691;52.486;13.374;2023-11-21T12:19:13;5.30;98.70
3356;DHT22;1691;52.486;13.374;2023-11-21T12:21:40;5.40;98.70
3356;DHT22;1691;52.486;13.374;2023-11-21T12:24:11;5.40;98.70
3356;DHT22;1691;52.486;13.374;2023-11-21T12:26:42;5.40;98.70
3356;DHT22;1691;52.486;13.374;2023-11-21T12:29:10;5.40;98.70
3356;DHT22;1691;52.486;13.374;2023-11-21T12:31:38;5.40;98.70
3356;DHT22;1691;52.486;13.374;2023-11-21T12:34:05;5.40;98.70
3356;DHT22;1691;52.486;13.374;2023-11-21T12:36:34;5.30;98.70
3356;DHT22;1691;52.486;13.374;2023-11-21T12:39:02;5.30;98.70
3356;DHT22;1691;52.486;13.374;2023-11-21T12:41:30;5.30;98.70
3356;DHT22;1691;52.486;13.374;2023-11-21T12:43:57;5.30;98.70
3356;DHT22;1691;52.486;13.374;2023-11-21T12:46:25;5.30;98.70
3356;DHT22;1691;52.486;13.374;2023-11-21T12:48:56;5.20;98.70
3356;DHT22;1691;52.486;13.374;2023-11-21T12:51:25;5.10;98.70
3356;DHT22;1691;52.486;13.374;2023-11-21T12:53:52;5.20;98.70
3356;DHT22;1691;52.486;13.374;2023-11-21T12:56:21;5.20;98.70
3356;DHT22;1691;52.486;13.374;2023-11-21T12:58:50;5.20;98.70
3356;DHT22;1691;52.486;13.374;2023-11-21T13:01:20;5.20;98.70
3356;DHT22;1691;52.486;13.374;2023-11-21T13:03:50;5.20;98.70
3356;DHT22;1691;52.486;13.374;2023-11-21T13:06:18;5.10;98.70
3356;DHT22;1691;52.486;13.374;2023-11-21T13:08:46;5.10;98.70
3356;DHT22;1691;52.486;13.374;2023-11-21T13:11:14;5.10;98.70
3356;DHT22;1691;52.486;13.374;2023-11-21T13:13:42;5.10;98.70
3356;DHT22;1691;52.486;13.374;2023-11-21T13:16:10;5.20;98.70
3356;DHT22;1691;52.486;13.374;2023-11-21T13:18:37;5.40;98.70
3356;DHT22;1691;52.486;13.374;2023-11-21T13:21:07;5.40;98.70
3356;DHT22;1691;52.486;13.374;2023-11-21T13:23:41;5.40;98.70
3356;DHT22;1691;52.486;13.374;2023-11-21T13:26:09;5.40;98.70
3356;DHT22;1691;52.486;13.374;2023-11-21T13:28:37;5.40;98.70
3356;DHT22;1691;52.486;13.374;2023-11-21T13:31:05;5.40;98.70
3356;DHT22;1691;52.486;13.374;2023-11-21T13:33:49;5.30;98.70
3356;DHT22;1691;52.486;13.374;2023-11-21T13:36:23;5.20;98.70
3356;DHT22;1691;52.486;13.374;2023-11-21T13:38:51;5.10;98.70
3356;DHT22;1691;52.486;13.374;2023-11-21T13:41:19;5.10;98.70
3356;DHT22;1691;52.486;13.374;2023-11-21T13:43:46;5.10;98.70
3356;DHT22;1691;52.486;13.374;2023-11-21T13:46:25;5.00;98.70
3356;DHT22;1691;52.486;13.374;2023-11-21T13:48:52;5.00;98.70
3356;DHT22;1691;52.486;13.374;2023-11-21T13:51:23;4.90;98.70
3356;DHT22;1691;52.486;13.374;2023-11-21T13:54:07;4.90;98.70
3356;DHT22;1691;52.486;13.374;2023-11-21T13:56:37;4.80;98.70
3356;DHT22;1691;52.486;13.374;2023-11-21T13:59:05;4.70;98.70
3356;DHT22;1691;52.486;13.374;2023-11-21T14:01:53;4.70;98.70
3356;DHT22;1691;52.486;13.374;2023-11-21T14:04:26;4.70;98.70
3356;DHT22;1691;52.486;13.374;2023-11-21T14:06:56;4.70;98.70
3356;DHT22;1691;52.486;13.374;2023-11-21T14:09:23;4.70;98.70
3356;DHT22;1691;52.486;13.374;2023-11-21T14:11:59;4.60;98.70
3356;DHT22;1691;52.486;13.374;2023-11-21T14:14:29;4.60;98.70
3356;DHT22;1691;52.486;13.374;2023-11-21T14:16:56;4.60;98.70
3356;DHT22;1691;52.486;13.374;2023-11-21T14:19:25;4.60;98.70
3356;DHT22;1691;52.486;13.374;2023-11-21T14:21:59;4.60;98.70
3356;DHT22;1691;52.486;13.374;2023-11-21T14:24:28;4.50;98.70
3356;DHT22;1691;52.486;13.374;2023-11-21T14:26:56;4.60;98.70
3356;DHT22;1691;52.486;13.374;2023-11-21T14:29:23;4.50;98.70
3356;DHT22;1691;52.486;13.374;2023-11-21T14:31:50;4.40;98.70
3356;DHT22;1691;52.486;13.374;2023-11-21T14:34:20;4.20;98.70
3356;DHT22;1691;52.486;13.374;2023-11-21T14:36:50;4.20;98.70
3356;DHT22;1691;52.486;13.374;2023-11-21T14:39:17;4.10;98.70
3356;DHT22;1691;52.486;13.374;2023-11-21T14:41:51;4.10;98.70
3356;DHT22;1691;52.486;13.374;2023-11-21T14:44:20;4.00;98.70
3356;DHT22;1691;52.486;13.374;2023-11-21T14:46:50;3.90;98.70
3356;DHT22;1691;52.486;13.374;2023-11-21T14:49:18;3.90;98.70
3356;DHT22;1691;52.486;13.374;2023-11-21T14:51:52;3.80;98.70
3356;DHT22;1691;52.486;13.374;2023-11-21T14:54:31;3.80;98.70
3356;DHT22;1691;52.486;13.374;2023-11-21T14:57:09;3.70;98.70
3356;DHT22;1691;52.486;13.374;2023-11-21T14:59:44;3.80;98.70
3356;DHT22;1691;52.486;13.374;2023-11-21T15:02:19;3.80;98.70
3356;DHT22;1691;52.486;13.374;2023-11-21T15:05:10;3.70;98.70
3356;DHT22;1691;52.486;13.374;2023-11-21T15:07:43;3.70;98.70
3356;DHT22;1691;52.486;13.374;2023-11-21T15:10:12;3.70;98.70
3356;DHT22;1691;52.486;13.374;2023-11-21T15:12:41;3.70;98.70
3356;DHT22;1691;52.486;13.374;2023-11-21T15:15:10;3.60;98.70
3356;DHT22;1691;52.486;13.374;2023-11-21T15:17:37;3.60;98.70
3356;DHT22;1691;52.486;13.374;2023-11-21T15:20:07;3.60;98.70
3356;DHT22;1691;52.486;13.374;2023-11-21T15:22:35;3.60;98.70
3356;DHT22;1691;52.486;13.374;2023-11-21T15:25:04;3.60;98.70
3356;DHT22;1691;52.486;13.374;2023-11-21T15:27:36;3.60;98.70
3356;DHT22;1691;52.486;13.374;2023-11-21T15:30:04;3.60;98.70
3356;DHT22;1691;52.486;13.374;2023-11-21T15:32:31;3.60;98.70
3356;DHT22;1691;52.486;13.374;2023-11-21T15:34:58;3.60;98.70
3356;DHT22;1691;52.486;13.374;2023-11-21T15:37:25;3.60;98.70
3356;DHT22;1691;52.486;13.374;2023-11-21T15:39:55;3.60;98.70
3356;DHT22;1691;52.486;13.374;2023-11-21T15:42:22;3.60;98.70
3356;DHT22;1691;52.486;13.374;2023-11-21T15:44:49;3.70;98.70
3356;DHT22;1691;52.486;13.374;2023-11-21T15:47:17;3.60;98.70
3356;DHT22;1691;52.486;13.374;2023-11-21T15:49:45;3.60;98.70
3356;DHT22;1691;52.486;13.374;2023-11-21T15:52:16;3.60;98.70
3356;DHT22;1691;52.486;13.374;2023-11-21T15:54:43;3.50;98.70
3356;DHT22;1691;52.486;13.374;2023-11-21T15:57:12;3.50;98.70
3356;DHT22;1691;52.486;13.374;2023-11-21T15:59:40;3.60;98.70
3356;DHT22;1691;52.486;13.374;2023-11-21T16:02:09;3.60;98.70
3356;DHT22;1691;52.486;13.374;2023-11-21T16:04:39;3.70;98.70
3356;DHT22;1691;52.486;13.374;2023-11-21T16:07:07;3.60;98.70
3356;DHT22;1691;52.486;13.374;2023-11-21T16:09:35;3.60;98.70
3356;DHT22;1691;52.486;13.374;2023-11-21T16:12:05;3.60;98.70
3356;DHT22;1691;52.486;13.374;2023-11-21T16:14:35;3.60;98.70
3356;DHT22;1691;52.486;13.374;2023-11-21T16:17:08;3.60;98.70
3356;DHT22;1691;52.486;13.374;2023-11-21T16:19:40;3.60;98.70
3356;DHT22;1691;52.486;13.374;2023-11-21T16:22:08;3.60;98.70
3356;DHT22;1691;52.486;13.374;2023-11-21T16:24:35;3.60;98.70
3356;DHT22;1691;52.486;13.374;2023-11-21T16:27:03;3.70;98.70